Time;durP1;ratioP1;P1;durP2;ratioP2;P2;SDS_P1;SDS_P2;PMS_P1;PMS_P2;Temp;Humidity;BMP_temperature;BMP_pressure;BME280_temperature;BME280_humidity;BME280_pressure;Samples;Min_cycle;Max_cycle;Signal;HPM_P1;HPM_P2
2022/12/20 00:01:58;;;;;;;12.68;6.35;;;8.60;99.90;;;;;;5139370;28;20082;-57
2022/12/20 00:04:23;;;;;;;13.05;7.10;;;9.00;99.90;;;;;;5139137;28;20047;-57
2022/12/20 00:06:49;;;;;;;14.25;6.50;;;8.70;99.90;;;;;;5139711;28;20099;-57
2022/12/20 00:09:15;;;;;;;9.93;5.72;;;8.80;99.90;;;;;;5139194;28;20058;-57
2022/12/20 00:11:41;;;;;;;10.25;6.20;;;9.10;99.90;;;;;;5139066;28;20055;-57
2022/12/20 00:14:08;;;;;;;11.32;6.35;;;8.90;99.90;;;;;;5138746;28;20035;-57
2022/12/20 00:16:35;;;;;;;11.57;6.07;;;9.00;99.90;;;;;;5138837;28;20510;-57
2022/12/20 00:19:03;;;;;;;12.05;5.78;;;8.90;99.90;;;;;;5139384;28;20039;-57
2022/12/20 00:21:31;;;;;;;11.05;5.68;;;8.80;99.90;;;;;;5138629;28;20051;-57
2022/12/20 00:23:57;;;;;;;10.55;6.00;;;9.20;99.90;;;;;;5138813;28;20085;-57
2022/12/20 00:26:29;;;;;;;11.20;5.75;;;8.80;99.90;;;;;;5137918;28;20039;-57
2022/12/20 00:28:55;;;;;;;11.48;5.88;;;9.00;99.90;;;;;;5141010;27;20070;-57
2022/12/20 00:31:23;;;;;;;9.77;5.70;;;9.10;99.90;;;;;;5142824;27;20053;-57
2022/12/20 00:33:51;;;;;;;10.93;5.53;;;9.20;99.90;;;;;;5143306;27;20046;-57
2022/12/20 00:36:18;;;;;;;9.00;5.65;;;9.10;99.90;;;;;;5142810;27;20039;-57
2022/12/20 00:38:45;;;;;;;8.55;4.93;;;8.90;99.90;;;;;;5142700;27;20494;-57
2022/12/20 00:41:13;;;;;;;11.25;5.82;;;9.20;99.90;;;;;;5143052;27;20503;-58
2022/12/20 00:43:40;;;;;;;9.15;5.10;;;9.00;99.90;;;;;;5142008;27;20042;-57
2022/12/20 00:46:07;;;;;;;10.02;5.07;;;9.00;99.90;;;;;;5142366;27;20043;-57
2022/12/20 00:48:33;;;;;;;10.00;5.05;;;9.00;99.90;;;;;;5142471;27;20067;-58
2022/12/20 00:51:05;;;;;;;10.93;5.95;;;9.00;99.90;;;;;;5142422;27;20061;-57
2022/12/20 00:53:31;;;;;;;12.65;5.57;;;9.00;99.90;;;;;;5142690;27;20661;-57
2022/12/20 00:55:57;;;;;;;11.90;5.70;;;9.00;99.90;;;;;;5152564;27;20171;-57
2022/12/20 00:58:23;;;;;;;9.23;4.78;;;9.00;99.90;;;;;;5163588;27;20050;-57
2022/12/20 01:00:49;;;;;;;10.02;5.05;;;9.10;99.90;;;;;;5162867;27;20051;-56
2022/12/20 01:03:15;;;;;;;9.35;4.43;;;8.90;99.90;;;;;;5163594;27;20095;-56
2022/12/20 01:05:53;;;;;;;13.73;5.97;;;9.00;99.90;;;;;;5162832;27;20241;-57
2022/12/20 01:08:19;;;;;;;9.75;5.28;;;9.00;99.90;;;;;;5163431;27;20043;-57
2022/12/20 01:10:46;;;;;;;11.98;5.07;;;9.00;99.90;;;;;;5144546;27;20047;-57
2022/12/20 01:13:12;;;;;;;10.02;5.32;;;9.00;99.90;;;;;;5162375;27;20035;-58
2022/12/20 01:15:38;;;;;;;10.68;5.00;;;8.90;99.90;;;;;;5162622;27;20043;-58
2022/12/20 01:18:03;;;;;;;11.90;5.35;;;9.10;99.90;;;;;;5162259;27;20042;-57
2022/12/20 01:20:29;;;;;;;10.35;5.53;;;9.00;99.90;;;;;;5162715;27;20046;-56
2022/12/20 01:22:55;;;;;;;9.23;4.80;;;9.10;99.90;;;;;;5126893;27;20067;-57
2022/12/20 01:25:20;;;;;;;9.38;4.80;;;9.00;99.90;;;;;;5163133;27;20051;-57
2022/12/20 01:27:46;;;;;;;9.65;5.13;;;9.10;99.90;;;;;;5162751;27;20062;-58
2022/12/20 01:30:12;;;;;;;8.43;4.40;;;9.10;99.90;;;;;;5162367;27;20068;-57
2022/12/20 01:32:37;;;;;;;7.95;4.38;;;9.00;99.90;;;;;;5162990;27;20042;-57
2022/12/20 01:35:04;;;;;;;9.25;4.60;;;9.10;99.90;;;;;;5162226;27;20038;-57
2022/12/20 01:37:30;;;;;;;8.63;4.50;;;9.00;99.90;;;;;;5162386;27;20046;-57
2022/12/20 01:39:56;;;;;;;13.43;5.10;;;9.10;99.90;;;;;;5142882;27;20039;-56
2022/12/20 01:42:21;;;;;;;7.78;4.43;;;9.00;99.90;;;;;;5161664;27;20518;-57
2022/12/20 01:44:55;;;;;;;9.50;4.43;;;9.00;99.90;;;;;;5162447;27;20047;-57
2022/12/20 01:47:21;;;;;;;8.20;4.63;;;9.10;99.90;;;;;;5161931;27;20057;-58
2022/12/20 01:49:50;;;;;;;7.38;4.25;;;9.10;99.90;;;;;;5162785;27;20130;-57
2022/12/20 01:52:42;;;;;;;9.32;4.90;;;9.00;99.90;;;;;;5162401;27;20118;-57
2022/12/20 01:55:15;;;;;;;10.55;4.90;;;9.00;99.90;;;;;;5145261;27;20551;-57
2022/12/20 01:57:44;;;;;;;10.05;4.80;;;8.90;99.90;;;;;;5141588;27;20047;-57
2022/12/20 02:00:10;;;;;;;8.85;4.38;;;8.90;99.90;;;;;;5141274;27;20076;-57
2022/12/20 02:02:36;;;;;;;9.48;4.53;;;8.90;99.90;;;;;;5141835;27;20039;-59
2022/12/20 02:05:02;;;;;;;10.18;4.78;;;9.00;99.90;;;;;;5141257;27;20054;-57
2022/12/20 02:07:31;;;;;;;9.95;4.65;;;9.00;99.90;;;;;;5141341;27;20039;-56
2022/12/20 02:09:59;;;;;;;7.60;4.10;;;9.00;99.90;;;;;;5122544;27;20108;-57
2022/12/20 02:12:36;;;;;;;9.25;4.43;;;8.90;99.90;;;;;;5140924;27;20039;-56
2022/12/20 02:15:34;;;;;;;9.77;4.25;;;9.00;99.90;;;;;;5140807;27;20047;-57
2022/12/20 02:18:18;;;;;;;8.05;4.20;;;8.90;99.90;;;;;;5140635;27;20453;-57
2022/12/20 02:20:57;;;;;;;9.88;4.50;;;9.00;99.90;;;;;;5140836;27;20071;-57
2022/12/20 02:23:45;;;;;;;9.10;4.97;;;8.80;99.90;;;;;;5140697;27;20102;-56
2022/12/20 02:26:25;;;;;;;8.57;4.65;;;9.00;99.90;;;;;;5089511;27;20055;-57
2022/12/20 02:29:12;;;;;;;9.02;4.45;;;9.00;99.90;;;;;;5140624;27;20047;-56
2022/12/20 02:31:42;;;;;;;7.60;4.45;;;8.90;99.90;;;;;;5140773;27;20107;-56
2022/12/20 02:34:09;;;;;;;11.88;4.60;;;8.90;99.90;;;;;;5140853;27;20047;-57
2022/12/20 02:36:35;;;;;;;10.95;4.65;;;8.90;99.90;;;;;;5122708;27;20050;-57
2022/12/20 02:39:01;;;;;;;9.70;4.28;;;8.90;99.90;;;;;;5140713;27;20043;-56
2022/12/20 02:41:36;;;;;;;8.20;4.30;;;8.90;99.90;;;;;;5140582;27;20491;-57
2022/12/20 02:46:54;;;;;;;10.18;4.38;;;9.00;99.90;;;;;;5140813;27;20059;-57
2022/12/20 02:49:25;;;;;;;7.65;4.03;;;9.00;99.90;;;;;;5140678;27;20039;-57
2022/12/20 02:51:54;;;;;;;8.15;4.63;;;8.90;99.90;;;;;;5140266;27;20050;-57
2022/12/20 02:54:20;;;;;;;9.20;4.30;;;8.90;99.90;;;;;;5140856;27;20068;-58
2022/12/20 02:57:02;;;;;;;7.85;4.47;;;8.90;99.90;;;;;;5157809;27;20053;-58
2022/12/20 02:59:38;;;;;;;11.93;5.03;;;8.90;99.90;;;;;;5160958;27;20103;-59
2022/12/20 03:02:05;;;;;;;10.48;4.75;;;8.90;99.90;;;;;;5161495;27;20078;-58
2022/12/20 03:04:35;;;;;;;9.98;4.82;;;8.70;99.90;;;;;;5160839;27;20054;-58
2022/12/20 03:07:01;;;;;;;10.80;5.30;;;8.70;99.90;;;;;;5161288;27;20046;-58
2022/12/20 03:09:29;;;;;;;9.80;5.63;;;8.80;99.90;;;;;;5141827;27;20051;-59
2022/12/20 03:11:55;;;;;;;11.07;5.70;;;8.70;99.90;;;;;;5160593;27;20720;-59
2022/12/20 03:14:21;;;;;;;10.07;5.18;;;8.60;99.90;;;;;;5125248;27;20069;-59
2022/12/20 03:16:47;;;;;;;9.02;5.15;;;8.90;99.90;;;;;;5161404;27;20353;-59
2022/12/20 03:19:13;;;;;;;8.95;5.35;;;8.80;99.90;;;;;;5142267;27;20039;-59
2022/12/20 03:21:39;;;;;;;9.30;5.35;;;8.90;99.90;;;;;;5142040;27;20167;-59
2022/12/20 03:24:05;;;;;;;12.25;6.20;;;8.60;99.90;;;;;;5142357;27;20405;-59
2022/12/20 03:26:31;;;;;;;10.90;5.07;;;8.80;99.90;;;;;;5160714;27;20039;-59
2022/12/20 03:28:56;;;;;;;9.82;5.10;;;8.80;99.90;;;;;;5141979;27;20078;-59
2022/12/20 03:31:22;;;;;;;9.75;5.22;;;8.70;99.90;;;;;;5160633;27;20049;-59
2022/12/20 03:33:49;;;;;;;9.35;5.20;;;8.70;99.90;;;;;;5160647;27;20054;-59
2022/12/20 03:36:15;;;;;;;10.35;5.22;;;8.70;99.90;;;;;;5160785;27;20092;-59
2022/12/20 03:38:40;;;;;;;11.13;6.00;;;8.50;99.90;;;;;;5160207;27;20047;-59
2022/12/20 03:41:06;;;;;;;10.73;5.72;;;8.50;99.90;;;;;;5160924;27;20111;-59
2022/12/20 03:43:31;;;;;;;9.27;5.10;;;8.60;99.90;;;;;;5160059;27;20081;-59
2022/12/20 03:45:58;;;;;;;9.27;5.20;;;8.60;99.90;;;;;;5160883;27;20042;-58
2022/12/20 03:48:23;;;;;;;9.88;5.85;;;8.70;99.90;;;;;;5160181;27;20046;-58
2022/12/20 03:50:49;;;;;;;9.48;5.40;;;8.70;99.90;;;;;;5160804;27;20045;-59
2022/12/20 03:53:15;;;;;;;9.68;5.78;;;8.50;99.90;;;;;;5160604;27;20038;-59
2022/12/20 03:55:40;;;;;;;10.20;5.55;;;8.50;99.90;;;;;;5152506;27;20040;-58
2022/12/20 03:58:06;;;;;;;10.88;5.70;;;8.70;99.90;;;;;;5140042;28;20039;-58
2022/12/20 04:00:32;;;;;;;9.27;5.70;;;8.50;99.90;;;;;;5139427;28;20398;-59
2022/12/20 04:02:58;;;;;;;9.50;5.68;;;8.90;99.90;;;;;;5139425;27;20719;-58
2022/12/20 04:05:23;;;;;;;9.00;5.43;;;8.70;99.90;;;;;;5143635;27;20059;-58
2022/12/20 04:07:49;;;;;;;9.68;5.78;;;8.90;99.90;;;;;;5143960;27;20058;-58
2022/12/20 04:10:15;;;;;;;10.98;5.43;;;8.60;99.90;;;;;;5143390;27;20104;-58
2022/12/20 04:12:41;;;;;;;9.88;5.65;;;8.70;99.90;;;;;;5143331;27;20075;-58
2022/12/20 04:15:07;;;;;;;10.00;5.20;;;8.90;99.90;;;;;;5124669;27;20082;-58
2022/12/20 04:17:32;;;;;;;11.52;4.97;;;8.90;99.90;;;;;;5124588;27;20043;-59
2022/12/20 04:20:17;;;;;;;9.15;5.07;;;9.00;99.90;;;;;;5125116;27;20050;-58
2022/12/20 04:22:47;;;;;;;9.90;5.22;;;8.80;99.90;;;;;;5143181;27;20050;-58
2022/12/20 04:25:13;;;;;;;13.48;5.68;;;9.00;99.90;;;;;;5143668;27;20027;-58
2022/12/20 04:27:39;;;;;;;10.98;5.35;;;8.90;99.90;;;;;;5124900;27;20074;-58
2022/12/20 04:30:05;;;;;;;9.32;6.05;;;8.80;99.90;;;;;;5142945;27;20054;-59
2022/12/20 04:32:31;;;;;;;10.65;5.80;;;8.90;99.90;;;;;;5143374;27;20103;-59
2022/12/20 04:34:56;;;;;;;10.10;5.55;;;8.90;99.90;;;;;;5142878;27;20078;-59
2022/12/20 04:37:22;;;;;;;12.20;6.68;;;9.30;99.90;;;;;;5142895;27;20111;-58
2022/12/20 04:39:48;;;;;;;10.00;5.60;;;9.30;99.90;;;;;;5123852;27;20097;-59
2022/12/20 04:42:13;;;;;;;10.45;5.68;;;9.20;99.90;;;;;;5143032;27;20043;-58
2022/12/20 04:44:39;;;;;;;9.63;5.78;;;9.40;99.90;;;;;;5142511;27;20070;-58
2022/12/20 04:47:04;;;;;;;9.10;5.63;;;9.30;99.90;;;;;;5143054;27;20035;-58
2022/12/20 04:49:30;;;;;;;9.27;5.43;;;9.10;99.90;;;;;;5143039;27;20039;-58
2022/12/20 04:53:46;;;;;;;9.85;5.70;;;9.00;99.90;;;;;;5142951;27;20099;-58
2022/12/20 04:54:41;;;;;;;9.23;5.85;;;9.40;99.90;;;;;;5142841;27;20049;-58
2022/12/20 04:57:08;;;;;;;11.40;5.93;;;9.00;99.90;;;;;;5162952;27;20066;-58
2022/12/20 04:59:34;;;;;;;11.35;6.40;;;9.10;99.90;;;;;;5144765;27;20092;-58
2022/12/20 05:02:00;;;;;;;10.68;5.80;;;9.40;99.90;;;;;;5163602;27;20070;-58
2022/12/20 05:04:26;;;;;;;11.50;5.72;;;9.50;99.90;;;;;;5163240;27;20076;-58
2022/12/20 05:06:52;;;;;;;8.95;5.63;;;9.20;99.90;;;;;;5163406;27;20078;-58
2022/12/20 05:09:17;;;;;;;12.20;6.05;;;9.40;99.90;;;;;;5162559;27;20086;-58
2022/12/20 05:11:43;;;;;;;11.32;6.57;;;9.40;99.90;;;;;;5162572;27;20053;-58
2022/12/20 05:14:09;;;;;;;11.65;5.75;;;9.50;99.90;;;;;;5144031;27;20050;-59
2022/12/20 05:16:36;;;;;;;10.45;7.07;;;9.50;99.90;;;;;;5161862;27;20051;-58
2022/12/20 05:19:03;;;;;;;11.05;5.80;;;9.10;99.90;;;;;;5144369;27;20049;-58
2022/12/20 05:26:59;;;;;;;9.63;5.75;;;9.30;99.90;;;;;;5162968;27;20397;-59
2022/12/20 05:29:24;;;;;;;10.57;5.93;;;9.30;99.90;;;;;;5163040;27;20042;-58
2022/12/20 05:31:50;;;;;;;9.45;5.97;;;9.20;99.90;;;;;;5162890;27;20097;-58
2022/12/20 05:34:16;;;;;;;10.18;5.80;;;9.60;99.90;;;;;;5144189;27;20038;-58
2022/12/20 05:36:41;;;;;;;9.57;5.50;;;9.20;99.90;;;;;;5162687;27;20058;-58
2022/12/20 05:39:07;;;;;;;10.13;5.40;;;9.20;99.90;;;;;;5162578;27;20030;-58
2022/12/20 05:41:33;;;;;;;11.88;5.30;;;9.30;99.90;;;;;;5162196;27;20068;-58
2022/12/20 05:43:59;;;;;;;9.55;5.28;;;9.40;99.90;;;;;;5157388;27;20050;-58
2022/12/20 05:46:24;;;;;;;10.35;5.35;;;9.60;99.90;;;;;;5162357;27;20053;-58
2022/12/20 05:48:51;;;;;;;9.63;5.57;;;9.50;99.90;;;;;;5162383;27;20098;-58
2022/12/20 05:51:16;;;;;;;10.18;5.43;;;9.30;99.90;;;;;;5162240;27;20035;-58
2022/12/20 05:53:42;;;;;;;9.45;5.75;;;9.60;99.90;;;;;;5144087;27;20050;-58
2022/12/20 05:56:08;;;;;;;9.00;5.43;;;9.60;99.90;;;;;;5150091;27;20054;-58
2022/12/20 05:58:33;;;;;;;9.35;5.38;;;9.60;99.90;;;;;;5105950;27;20043;-58
2022/12/20 06:01:01;;;;;;;15.25;4.93;;;9.30;99.90;;;;;;5141072;27;20473;-58
2022/12/20 06:03:27;;;;;;;8.50;4.60;;;9.50;99.90;;;;;;5141594;27;20137;-58
2022/12/20 06:05:53;;;;;;;8.80;4.70;;;9.40;99.90;;;;;;5141181;27;20043;-59
2022/12/20 06:08:20;;;;;;;11.73;5.60;;;9.50;99.90;;;;;;5138622;27;20043;-58
2022/12/20 06:10:47;;;;;;;8.02;4.93;;;9.40;99.90;;;;;;5137172;27;20070;-58
2022/12/20 06:13:12;;;;;;;8.77;4.97;;;9.60;99.90;;;;;;5136783;27;20082;-59
2022/12/20 06:15:38;;;;;;;9.05;4.95;;;9.40;99.90;;;;;;5136848;27;20043;-58
2022/12/20 06:18:05;;;;;;;10.52;5.05;;;9.30;99.90;;;;;;5136904;27;20047;-58
2022/12/20 06:20:31;;;;;;;12.10;5.38;;;9.60;99.90;;;;;;5118211;27;20051;-58
2022/12/20 06:22:57;;;;;;;10.05;5.55;;;9.60;99.90;;;;;;5136854;27;20101;-58
2022/12/20 06:25:23;;;;;;;9.15;5.05;;;9.40;99.90;;;;;;5136332;27;20035;-58
2022/12/20 06:27:48;;;;;;;8.52;4.72;;;9.40;99.90;;;;;;5136764;27;20241;-58
2022/12/20 06:30:15;;;;;;;10.85;4.90;;;9.60;99.90;;;;;;5137300;27;20131;-58
2022/12/20 06:32:40;;;;;;;9.13;5.20;;;9.30;99.90;;;;;;5137513;27;20047;-58
2022/12/20 06:35:07;;;;;;;9.13;5.07;;;9.60;99.90;;;;;;5137301;27;20108;-58
2022/12/20 06:37:32;;;;;;;7.97;4.75;;;9.50;99.90;;;;;;5119366;27;20126;-58
2022/12/20 06:39:59;;;;;;;9.35;4.95;;;9.50;99.90;;;;;;5137256;27;20134;-58
2022/12/20 06:42:24;;;;;;;9.43;4.78;;;9.50;99.90;;;;;;5118277;27;20055;-57
2022/12/20 06:44:50;;;;;;;11.98;4.40;;;9.50;99.90;;;;;;5137136;27;20054;-58
2022/12/20 06:47:16;;;;;;;9.35;4.90;;;9.60;99.90;;;;;;5136974;27;20043;-58
2022/12/20 06:49:41;;;;;;;9.02;4.88;;;9.60;99.90;;;;;;5136796;27;20166;-58
2022/12/20 06:52:07;;;;;;;10.85;4.90;;;9.40;99.90;;;;;;5135703;27;20072;-58
2022/12/20 06:54:33;;;;;;;12.35;4.65;;;9.60;99.90;;;;;;5117765;27;20148;-57
2022/12/20 06:56:58;;;;;;;11.82;4.95;;;9.70;99.90;;;;;;5116985;27;20060;-58
2022/12/20 06:59:24;;;;;;;9.52;4.95;;;9.70;99.90;;;;;;5136648;27;20079;-57
2022/12/20 07:01:50;;;;;;;8.52;4.43;;;9.70;99.90;;;;;;5136471;27;20546;-57
2022/12/20 07:04:15;;;;;;;7.72;4.72;;;9.60;99.90;;;;;;5136284;27;20043;-57
2022/12/20 07:06:41;;;;;;;9.00;5.63;;;9.80;99.90;;;;;;5117990;27;20047;-56
2022/12/20 07:09:08;;;;;;;8.80;5.65;;;9.90;99.90;;;;;;5135653;27;20067;-56
2022/12/20 07:11:34;;;;;;;9.68;5.70;;;9.50;99.90;;;;;;5136421;27;20047;-56
2022/12/20 07:13:59;;;;;;;8.73;5.28;;;9.90;99.90;;;;;;5136179;27;20039;-56
2022/12/20 07:16:25;;;;;;;11.02;5.95;;;9.90;99.90;;;;;;5136329;27;20077;-57
2022/12/20 07:18:54;;;;;;;8.73;5.82;;;9.80;99.90;;;;;;5117314;27;20437;-56
2022/12/20 07:21:20;;;;;;;10.10;5.97;;;9.90;99.90;;;;;;5135410;27;20077;-57
2022/12/20 07:23:46;;;;;;;11.40;6.20;;;9.70;99.90;;;;;;5136317;27;20042;-57
2022/12/20 07:26:13;;;;;;;10.20;5.95;;;9.40;99.90;;;;;;5135635;27;20043;-57
2022/12/20 07:28:39;;;;;;;11.35;6.53;;;9.60;99.90;;;;;;5135980;27;20047;-57
2022/12/20 07:31:05;;;;;;;9.25;6.32;;;9.80;99.90;;;;;;5135684;27;20620;-57
2022/12/20 07:33:31;;;;;;;9.13;6.53;;;9.80;99.90;;;;;;5135789;27;20462;-56
2022/12/20 07:36:09;;;;;;;11.52;7.40;;;9.80;99.90;;;;;;5136430;27;20368;-57
2022/12/20 07:38:35;;;;;;;12.95;7.43;;;9.40;99.90;;;;;;5117419;27;20114;-57
2022/12/20 07:41:06;;;;;;;11.15;8.30;;;9.50;99.90;;;;;;5117574;28;20063;-57
2022/12/20 07:43:33;;;;;;;12.65;7.60;;;9.80;99.90;;;;;;5116448;28;20051;-57
2022/12/20 07:45:58;;;;;;;11.15;7.55;;;9.90;99.90;;;;;;5117754;28;20054;-56
2022/12/20 07:48:24;;;;;;;13.45;8.25;;;9.80;99.90;;;;;;5136003;28;20047;-57
2022/12/20 07:50:57;;;;;;;14.98;8.35;;;9.40;99.90;;;;;;5136210;28;20035;-56
2022/12/20 07:53:25;;;;;;;14.88;7.85;;;9.30;99.90;;;;;;5135745;28;20047;-57
2022/12/20 07:55:52;;;;;;;13.73;8.40;;;9.30;99.90;;;;;;5146821;27;20383;-56
2022/12/20 07:58:19;;;;;;;12.65;8.52;;;9.70;99.90;;;;;;5145983;27;20039;-56
2022/12/20 08:00:45;;;;;;;12.63;8.27;;;9.70;99.90;;;;;;5144620;27;20053;-57
2022/12/20 08:03:22;;;;;;;12.93;8.52;;;9.80;99.90;;;;;;5127590;27;20056;-57
2022/12/20 08:05:52;;;;;;;14.38;8.70;;;9.30;99.90;;;;;;5146397;27;20095;-57
2022/12/20 08:08:18;;;;;;;13.00;9.15;;;9.80;99.90;;;;;;5145075;27;20078;-57
2022/12/20 08:10:45;;;;;;;13.27;8.98;;;9.30;99.90;;;;;;5144673;27;20061;-56
2022/12/20 08:13:11;;;;;;;14.02;9.35;;;9.30;99.90;;;;;;5155830;27;20042;-57
2022/12/20 08:15:37;;;;;;;12.88;8.30;;;9.90;99.90;;;;;;5156449;27;20130;-57
2022/12/20 08:18:05;;;;;;;12.98;8.68;;;9.50;99.90;;;;;;5156026;27;20459;-56
2022/12/20 08:20:30;;;;;;;12.43;8.20;;;9.80;99.90;;;;;;5155465;27;20100;-57
2022/12/20 08:22:56;;;;;;;13.98;8.93;;;9.80;99.90;;;;;;5156057;27;20035;-56
2022/12/20 08:25:22;;;;;;;12.50;8.98;;;9.70;99.90;;;;;;5155146;27;20073;-56
2022/12/20 08:27:48;;;;;;;13.75;8.18;;;9.40;99.90;;;;;;5155635;27;20050;-57
2022/12/20 08:30:14;;;;;;;13.73;8.15;;;9.60;99.90;;;;;;5136741;27;20570;-56
2022/12/20 08:32:40;;;;;;;13.27;7.57;;;9.40;99.90;;;;;;5155685;27;20727;-57
2022/12/20 08:35:06;;;;;;;10.73;7.07;;;9.50;99.90;;;;;;5155979;27;20095;-57
2022/12/20 08:37:32;;;;;;;10.98;7.53;;;9.90;99.90;;;;;;5155947;27;20070;-57
2022/12/20 08:39:59;;;;;;;12.68;7.47;;;9.50;99.90;;;;;;5155789;27;20047;-57
2022/12/20 08:42:26;;;;;;;9.65;6.30;;;9.60;99.90;;;;;;5155865;27;20064;-56
2022/12/20 08:44:51;;;;;;;12.18;6.10;;;9.80;99.90;;;;;;5155695;27;20066;-57
2022/12/20 08:47:17;;;;;;;11.38;6.00;;;9.70;99.90;;;;;;5155948;27;20050;-58
2022/12/20 08:49:43;;;;;;;9.85;5.70;;;9.70;99.90;;;;;;5138644;27;20502;-58
2022/12/20 08:52:08;;;;;;;10.98;5.57;;;10.00;99.90;;;;;;5159564;27;20039;-57
2022/12/20 08:54:34;;;;;;;10.65;5.57;;;9.90;99.90;;;;;;5159531;27;20038;-58
2022/12/20 08:56:59;;;;;;;9.38;5.22;;;9.80;99.90;;;;;;5139890;27;20063;-58
2022/12/20 08:59:25;;;;;;;10.85;5.38;;;9.80;99.90;;;;;;5138999;27;20050;-57
2022/12/20 09:01:53;;;;;;;10.20;5.30;;;9.70;99.90;;;;;;5147284;27;20035;-57
2022/12/20 09:04:19;;;;;;;8.00;4.90;;;10.00;99.90;;;;;;5148780;27;20043;-58
2022/12/20 09:06:45;;;;;;;9.23;5.28;;;10.00;99.90;;;;;;5136078;27;20047;-58
2022/12/20 09:09:11;;;;;;;10.55;4.88;;;9.90;99.90;;;;;;5137831;27;20047;-57
2022/12/20 09:11:36;;;;;;;8.57;4.57;;;9.70;99.90;;;;;;5138650;27;20054;-57
2022/12/20 09:14:02;;;;;;;9.10;4.75;;;9.90;99.90;;;;;;5120006;27;20045;-58
2022/12/20 09:16:31;;;;;;;9.85;5.25;;;10.10;99.90;;;;;;5120123;27;20039;-57
2022/12/20 09:18:58;;;;;;;9.50;4.25;;;9.80;99.90;;;;;;5138368;27;20047;-57
2022/12/20 09:21:25;;;;;;;8.32;4.10;;;10.10;99.90;;;;;;5138128;27;20051;-57
2022/12/20 09:23:53;;;;;;;8.75;4.20;;;10.00;99.90;;;;;;5138227;27;20074;-57
2022/12/20 09:26:20;;;;;;;8.23;4.28;;;10.00;99.90;;;;;;5137288;27;20063;-57
2022/12/20 09:28:47;;;;;;;7.93;3.90;;;10.10;99.90;;;;;;5134515;27;20079;-58
2022/12/20 09:31:16;;;;;;;9.95;4.45;;;10.00;99.90;;;;;;5158682;27;20055;-57
2022/12/20 09:33:42;;;;;;;9.00;4.35;;;10.20;99.90;;;;;;5158429;27;20070;-57
2022/12/20 09:36:13;;;;;;;10.25;4.65;;;10.20;99.90;;;;;;5158733;27;20082;-57
2022/12/20 09:38:39;;;;;;;10.88;4.03;;;10.00;99.90;;;;;;5158260;27;20046;-57
2022/12/20 09:41:07;;;;;;;9.32;4.95;;;10.20;99.90;;;;;;5158642;27;20083;-58
2022/12/20 09:43:35;;;;;;;12.80;4.97;;;10.30;99.90;;;;;;5157719;27;20046;-58
2022/12/20 09:46:03;;;;;;;9.05;4.43;;;10.20;99.90;;;;;;5158768;27;20060;-57
2022/12/20 09:48:34;;;;;;;9.93;4.60;;;10.30;99.90;;;;;;5158426;27;20054;-57
2022/12/20 09:51:08;;;;;;;9.13;3.90;;;10.40;99.90;;;;;;5158018;27;20049;-58
2022/12/20 09:53:58;;;;;;;9.20;3.97;;;10.50;99.90;;;;;;5149852;27;20432;-57
2022/12/20 09:56:36;;;;;;;9.23;4.65;;;10.40;99.90;;;;;;5145634;27;20047;-57
2022/12/20 09:59:13;;;;;;;9.82;3.42;;;10.50;99.90;;;;;;5147952;27;20526;-57
2022/12/20 10:01:43;;;;;;;10.48;3.53;;;10.60;99.90;;;;;;5122936;27;20389;-56
2022/12/20 10:04:22;;;;;;;7.15;3.22;;;10.50;99.90;;;;;;5137373;27;20506;-57
2022/12/20 10:07:03;;;;;;;7.38;3.83;;;10.50;99.90;;;;;;5137655;27;20244;-57
2022/12/20 10:09:29;;;;;;;7.95;4.13;;;10.50;99.90;;;;;;5118157;27;20040;-58
2022/12/20 10:12:02;;;;;;;9.05;3.35;;;10.40;99.90;;;;;;5137492;27;20544;-57
2022/12/20 10:14:44;;;;;;;7.60;3.75;;;10.40;99.90;;;;;;5136708;27;20066;-57
2022/12/20 10:17:19;;;;;;;8.38;3.75;;;10.40;99.90;;;;;;5140329;27;20047;-57
2022/12/20 10:20:02;;;;;;;8.32;3.80;;;10.40;99.90;;;;;;5138985;27;20094;-57
2022/12/20 10:22:36;;;;;;;6.85;3.30;;;10.30;99.90;;;;;;5140030;27;20189;-57
2022/12/20 10:25:11;;;;;;;11.68;4.28;;;10.50;99.90;;;;;;5141034;27;20489;-57
2022/12/20 10:27:41;;;;;;;7.65;4.05;;;10.40;99.90;;;;;;5122513;27;20133;-57
2022/12/20 10:30:19;;;;;;;8.93;3.72;;;10.40;99.90;;;;;;5140855;27;20546;-57
2022/12/20 10:32:47;;;;;;;8.02;3.70;;;10.40;99.90;;;;;;5141153;27;20043;-58
2022/12/20 10:35:13;;;;;;;9.77;3.75;;;10.30;99.90;;;;;;5140820;27;20031;-57
2022/12/20 10:38:03;;;;;;;7.82;3.63;;;10.50;99.90;;;;;;5140934;27;20043;-57
2022/12/20 10:40:36;;;;;;;8.02;3.60;;;10.30;99.90;;;;;;5127032;27;20047;-57
2022/12/20 10:43:04;;;;;;;8.73;3.80;;;10.30;99.90;;;;;;5140160;27;20831;-57
2022/12/20 10:45:37;;;;;;;8.68;3.28;;;10.40;99.90;;;;;;5140699;27;20047;-57
2022/12/20 10:48:26;;;;;;;7.85;3.60;;;10.40;99.90;;;;;;5121969;27;20528;-57
2022/12/20 10:51:00;;;;;;;8.27;3.50;;;10.50;99.90;;;;;;5140718;27;20098;-57
2022/12/20 10:53:27;;;;;;;8.65;3.75;;;10.40;99.90;;;;;;5140696;27;20058;-57
2022/12/20 10:56:07;;;;;;;8.45;3.60;;;10.50;99.90;;;;;;5140422;27;20043;-57
2022/12/20 10:58:35;;;;;;;9.93;4.00;;;10.50;99.90;;;;;;5139656;27;20039;-57
2022/12/20 11:01:17;;;;;;;9.55;3.90;;;10.40;99.90;;;;;;5139750;27;20035;-57
2022/12/20 11:04:27;;;;;;;6.78;4.03;;;10.30;99.90;;;;;;5139526;27;20054;-57
2022/12/20 11:06:53;;;;;;;7.63;3.58;;;10.50;99.90;;;;;;5113819;27;20055;-57
2022/12/20 11:09:23;;;;;;;9.85;3.88;;;10.30;99.90;;;;;;5145373;27;20049;-57
2022/12/20 11:12:21;;;;;;;7.82;3.90;;;10.50;99.90;;;;;;5131238;27;20043;-58
2022/12/20 11:14:48;;;;;;;7.60;3.63;;;10.40;99.90;;;;;;5107800;27;20047;-57
2022/12/20 11:17:27;;;;;;;10.05;3.67;;;10.30;99.90;;;;;;5149118;27;20035;-57
2022/12/20 11:20:32;;;;;;;10.63;4.45;;;10.40;99.90;;;;;;5150874;27;20035;-57
2022/12/20 11:23:26;;;;;;;8.57;3.70;;;10.30;99.90;;;;;;5098942;27;20045;-57
2022/12/20 11:25:57;;;;;;;8.48;4.00;;;10.20;99.90;;;;;;5150258;27;20047;-57
2022/12/20 11:28:35;;;;;;;8.27;3.83;;;10.20;99.90;;;;;;5149659;27;20039;-57
2022/12/20 11:31:32;;;;;;;11.63;4.03;;;10.20;99.90;;;;;;5148455;27;20046;-57
2022/12/20 11:34:12;;;;;;;6.40;3.20;;;10.10;99.90;;;;;;5149537;27;20054;-56
2022/12/20 11:36:57;;;;;;;7.30;4.18;;;10.10;99.90;;;;;;5151026;27;20501;-57
2022/12/20 11:39:43;;;;;;;8.15;3.70;;;10.20;99.90;;;;;;5148988;27;20043;-57
2022/12/20 11:42:13;;;;;;;9.68;4.20;;;10.20;99.90;;;;;;5149943;27;20043;-57
2022/12/20 11:44:56;;;;;;;7.97;4.00;;;10.20;99.90;;;;;;5148516;27;20062;-57
2022/12/20 11:47:24;;;;;;;8.65;4.32;;;10.20;99.90;;;;;;5160258;27;20130;-57
2022/12/20 11:50:16;;;;;;;7.60;3.67;;;10.40;99.90;;;;;;5160249;27;20043;-57
2022/12/20 11:52:53;;;;;;;10.48;4.38;;;10.40;99.90;;;;;;5160020;27;20139;-57
2022/12/20 11:55:25;;;;;;;7.60;4.38;;;10.20;99.90;;;;;;5155409;27;20027;-57
2022/12/20 11:57:50;;;;;;;10.73;4.97;;;10.20;99.90;;;;;;5139933;28;20039;-57
2022/12/20 12:00:17;;;;;;;9.70;4.47;;;10.10;99.90;;;;;;5139374;28;20314;-57
2022/12/20 12:02:50;;;;;;;9.32;4.28;;;10.40;99.90;;;;;;5139827;28;20068;-57
2022/12/20 12:05:56;;;;;;;9.15;4.50;;;10.40;99.90;;;;;;5139653;28;20043;-57
2022/12/20 12:08:35;;;;;;;8.85;5.00;;;10.10;99.90;;;;;;5088192;28;20055;-57
2022/12/20 12:11:17;;;;;;;10.60;4.88;;;10.40;99.90;;;;;;5139576;28;20404;-59
2022/12/20 12:13:43;;;;;;;10.18;5.53;;;10.30;99.90;;;;;;5139332;28;20051;-57
2022/12/20 12:16:41;;;;;;;10.38;5.68;;;10.10;99.90;;;;;;5139867;28;20053;-57
2022/12/20 12:19:12;;;;;;;10.23;5.43;;;10.10;99.90;;;;;;5130241;28;20051;-58
2022/12/20 12:21:48;;;;;;;11.38;5.35;;;10.10;99.90;;;;;;5139492;28;20487;-58
2022/12/20 12:24:41;;;;;;;11.10;5.97;;;10.00;99.90;;;;;;5121320;27;20035;-57
2022/12/20 12:27:19;;;;;;;10.30;6.20;;;10.00;99.90;;;;;;5143176;27;20066;-58
2022/12/20 12:29:45;;;;;;;15.15;6.75;;;10.30;99.90;;;;;;5143302;27;20042;-58
2022/12/20 12:32:31;;;;;;;8.68;5.38;;;10.30;99.90;;;;;;5142866;27;20558;-58
2022/12/20 12:35:18;;;;;;;10.20;4.80;;;10.10;99.90;;;;;;5142115;27;20054;-58
2022/12/20 12:38:17;;;;;;;11.68;5.57;;;10.20;99.90;;;;;;5124411;27;20046;-57
2022/12/20 12:40:57;;;;;;;10.50;5.40;;;9.90;99.90;;;;;;5142851;27;20047;-58
2022/12/20 12:43:44;;;;;;;9.88;5.60;;;10.00;99.90;;;;;;5142371;27;20550;-58
2022/12/20 12:46:31;;;;;;;11.65;6.15;;;10.30;99.90;;;;;;5142545;27;20039;-57
2022/12/20 12:49:13;;;;;;;14.00;6.80;;;10.30;99.90;;;;;;5143051;27;20051;-58
2022/12/20 12:51:42;;;;;;;10.52;6.55;;;10.30;99.90;;;;;;5142045;27;20130;-58
2022/12/20 12:54:20;;;;;;;10.52;6.03;;;10.10;99.90;;;;;;5148215;27;20043;-58
2022/12/20 12:56:48;;;;;;;9.95;6.45;;;10.00;99.90;;;;;;5147541;27;20135;-58
2022/12/20 12:59:32;;;;;;;9.40;5.35;;;9.80;99.90;;;;;;5142346;27;20043;-57
2022/12/20 13:02:13;;;;;;;11.18;6.70;;;9.80;99.90;;;;;;5124043;27;20130;-58
2022/12/20 13:04:58;;;;;;;11.93;7.05;;;10.20;99.90;;;;;;5142191;27;20054;-58
2022/12/20 13:07:31;;;;;;;10.75;6.38;;;10.20;99.90;;;;;;5141604;27;20047;-58
2022/12/20 13:10:04;;;;;;;10.93;7.22;;;9.90;99.90;;;;;;5144015;27;20047;-58
2022/12/20 13:12:35;;;;;;;10.40;6.65;;;10.10;99.90;;;;;;5132265;27;20047;-58
2022/12/20 13:15:19;;;;;;;11.23;6.78;;;9.80;99.90;;;;;;5156647;27;20051;-58